sensor_id;sensor_type;location;lat;lon;timestamp;P1;durP1;ratioP1;P2;durP2;ratioP2
24008;SDS011;12217;50.792;4.372;2023-07-20T00:01:17;8.95;;;3.13;;
24008;SDS011;12217;50.792;4.372;2023-07-20T00:03:43;7.53;;;3.30;;
24008;SDS011;12217;50.792;4.372;2023-07-20T00:06:09;9.90;;;3.55;;
24008;SDS011;12217;50.792;4.372;2023-07-20T00:08:34;6.85;;;3.22;;
24008;SDS011;12217;50.792;4.372;2023-07-20T00:11:00;8.45;;;3.42;;
24008;SDS011;12217;50.792;4.372;2023-07-20T00:13:25;8.23;;;4.03;;
24008;SDS011;12217;50.792;4.372;2023-07-20T00:15:51;7.38;;;4.30;;
24008;SDS011;12217;50.792;4.372;2023-07-20T00:18:17;8.75;;;4.50;;
24008;SDS011;12217;50.792;4.372;2023-07-20T00:20:46;6.57;;;3.95;;
24008;SDS011;12217;50.792;4.372;2023-07-20T00:23:12;10.38;;;4.80;;
24008;SDS011;12217;50.792;4.372;2023-07-20T00:25:37;9.65;;;4.47;;
24008;SDS011;12217;50.792;4.372;2023-07-20T00:28:03;10.52;;;4.40;;
24008;SDS011;12217;50.792;4.372;2023-07-20T00:30:28;7.63;;;4.30;;
24008;SDS011;12217;50.792;4.372;2023-07-20T00:32:54;12.68;;;3.95;;
24008;SDS011;12217;50.792;4.372;2023-07-20T00:35:20;11.25;;;4.18;;
24008;SDS011;12217;50.792;4.372;2023-07-20T00:37:45;11.57;;;5.32;;
24008;SDS011;12217;50.792;4.372;2023-07-20T00:40:11;8.77;;;4.85;;
24008;SDS011;12217;50.792;4.372;2023-07-20T00:42:36;12.02;;;6.03;;
24008;SDS011;12217;50.792;4.372;2023-07-20T00:45:02;12.23;;;6.13;;
24008;SDS011;12217;50.792;4.372;2023-07-20T00:47:28;11.35;;;6.05;;
24008;SDS011;12217;50.792;4.372;2023-07-20T00:49:53;11.15;;;5.65;;
24008;SDS011;12217;50.792;4.372;2023-07-20T00:52:25;11.32;;;5.07;;
24008;SDS011;12217;50.792;4.372;2023-07-20T00:54:53;10.98;;;5.47;;
24008;SDS011;12217;50.792;4.372;2023-07-20T00:57:21;9.70;;;4.60;;
24008;SDS011;12217;50.792;4.372;2023-07-20T00:59:49;9.18;;;4.90;;
24008;SDS011;12217;50.792;4.372;2023-07-20T01:02:14;10.80;;;4.03;;
24008;SDS011;12217;50.792;4.372;2023-07-20T01:04:40;7.75;;;3.97;;
24008;SDS011;12217;50.792;4.372;2023-07-20T01:09:45;6.93;;;4.07;;
24008;SDS011;12217;50.792;4.372;2023-07-20T01:12:27;11.85;;;4.20;;
24008;SDS011;12217;50.792;4.372;2023-07-20T01:15:00;9.73;;;4.20;;
24008;SDS011;12217;50.792;4.372;2023-07-20T01:17:26;8.48;;;3.55;;
24008;SDS011;12217;50.792;4.372;2023-07-20T01:19:51;10.20;;;3.88;;
24008;SDS011;12217;50.792;4.372;2023-07-20T01:28:09;7.43;;;3.80;;
24008;SDS011;12217;50.792;4.372;2023-07-20T01:33:36;10.45;;;4.15;;
24008;SDS011;12217;50.792;4.372;2023-07-20T01:36:02;14.05;;;4.20;;
24008;SDS011;12217;50.792;4.372;2023-07-20T01:38:28;10.82;;;3.92;;
24008;SDS011;12217;50.792;4.372;2023-07-20T01:40:54;13.20;;;4.78;;
24008;SDS011;12217;50.792;4.372;2023-07-20T01:43:23;8.82;;;4.45;;
24008;SDS011;12217;50.792;4.372;2023-07-20T01:45:48;9.35;;;4.05;;
24008;SDS011;12217;50.792;4.372;2023-07-20T01:48:14;6.97;;;3.97;;
24008;SDS011;12217;50.792;4.372;2023-07-20T01:50:40;11.10;;;4.38;;
24008;SDS011;12217;50.792;4.372;2023-07-20T01:53:05;7.97;;;4.55;;
24008;SDS011;12217;50.792;4.372;2023-07-20T01:55:31;9.00;;;4.43;;
24008;SDS011;12217;50.792;4.372;2023-07-20T01:57:57;10.40;;;4.80;;
24008;SDS011;12217;50.792;4.372;2023-07-20T02:00:25;14.85;;;4.70;;
24008;SDS011;12217;50.792;4.372;2023-07-20T02:02:50;9.57;;;4.55;;
24008;SDS011;12217;50.792;4.372;2023-07-20T02:05:16;10.90;;;4.80;;
24008;SDS011;12217;50.792;4.372;2023-07-20T02:07:42;12.82;;;4.60;;
24008;SDS011;12217;50.792;4.372;2023-07-20T02:10:08;11.57;;;4.80;;
24008;SDS011;12217;50.792;4.372;2023-07-20T02:12:34;12.63;;;5.20;;
24008;SDS011;12217;50.792;4.372;2023-07-20T02:15:00;9.30;;;4.82;;
24008;SDS011;12217;50.792;4.372;2023-07-20T02:17:25;11.75;;;4.72;;
24008;SDS011;12217;50.792;4.372;2023-07-20T02:19:54;11.10;;;4.63;;
24008;SDS011;12217;50.792;4.372;2023-07-20T02:22:22;11.77;;;5.03;;
24008;SDS011;12217;50.792;4.372;2023-07-20T02:24:48;12.20;;;5.38;;
24008;SDS011;12217;50.792;4.372;2023-07-20T02:27:14;8.02;;;4.88;;
24008;SDS011;12217;50.792;4.372;2023-07-20T02:29:40;10.93;;;5.30;;
24008;SDS011;12217;50.792;4.372;2023-07-20T02:32:07;9.30;;;4.72;;
24008;SDS011;12217;50.792;4.372;2023-07-20T02:34:34;12.75;;;5.57;;
24008;SDS011;12217;50.792;4.372;2023-07-20T02:37:00;10.52;;;5.55;;
24008;SDS011;12217;50.792;4.372;2023-07-20T02:39:28;11.27;;;6.07;;
24008;SDS011;12217;50.792;4.372;2023-07-20T02:41:54;14.85;;;5.90;;
24008;SDS011;12217;50.792;4.372;2023-07-20T02:44:20;10.10;;;5.93;;
24008;SDS011;12217;50.792;4.372;2023-07-20T02:46:45;14.55;;;6.13;;
24008;SDS011;12217;50.792;4.372;2023-07-20T02:49:11;14.88;;;6.57;;
24008;SDS011;12217;50.792;4.372;2023-07-20T02:51:37;11.07;;;6.10;;
24008;SDS011;12217;50.792;4.372;2023-07-20T02:54:03;11.98;;;6.28;;
24008;SDS011;12217;50.792;4.372;2023-07-20T02:56:29;11.50;;;6.00;;
24008;SDS011;12217;50.792;4.372;2023-07-20T02:58:54;16.88;;;6.40;;
24008;SDS011;12217;50.792;4.372;2023-07-20T03:01:22;13.25;;;5.97;;
24008;SDS011;12217;50.792;4.372;2023-07-20T03:03:48;15.00;;;6.22;;
24008;SDS011;12217;50.792;4.372;2023-07-20T03:06:14;13.60;;;5.90;;
24008;SDS011;12217;50.792;4.372;2023-07-20T03:08:41;14.13;;;6.53;;
24008;SDS011;12217;50.792;4.372;2023-07-20T03:11:10;9.65;;;6.25;;
24008;SDS011;12217;50.792;4.372;2023-07-20T03:13:36;14.75;;;6.72;;
24008;SDS011;12217;50.792;4.372;2023-07-20T03:16:01;16.05;;;6.95;;
24008;SDS011;12217;50.792;4.372;2023-07-20T03:18:27;12.50;;;6.43;;
24008;SDS011;12217;50.792;4.372;2023-07-20T03:20:52;17.58;;;6.93;;
24008;SDS011;12217;50.792;4.372;2023-07-20T03:23:18;13.32;;;6.63;;
24008;SDS011;12217;50.792;4.372;2023-07-20T03:25:43;16.58;;;7.10;;
24008;SDS011;12217;50.792;4.372;2023-07-20T03:28:09;15.35;;;6.70;;
24008;SDS011;12217;50.792;4.372;2023-07-20T03:30:35;15.68;;;6.40;;
24008;SDS011;12217;50.792;4.372;2023-07-20T03:33:00;15.20;;;7.25;;
24008;SDS011;12217;50.792;4.372;2023-07-20T03:35:26;13.82;;;6.55;;
24008;SDS011;12217;50.792;4.372;2023-07-20T03:37:51;14.07;;;7.30;;
24008;SDS011;12217;50.792;4.372;2023-07-20T03:40:17;17.42;;;8.10;;
24008;SDS011;12217;50.792;4.372;2023-07-20T03:42:42;15.68;;;8.65;;
24008;SDS011;12217;50.792;4.372;2023-07-20T03:45:08;14.85;;;8.10;;
24008;SDS011;12217;50.792;4.372;2023-07-20T03:47:34;15.85;;;9.10;;
24008;SDS011;12217;50.792;4.372;2023-07-20T03:50:00;15.48;;;8.07;;
24008;SDS011;12217;50.792;4.372;2023-07-20T03:52:25;17.88;;;8.55;;
24008;SDS011;12217;50.792;4.372;2023-07-20T03:54:51;13.30;;;8.70;;
24008;SDS011;12217;50.792;4.372;2023-07-20T03:57:16;14.73;;;8.43;;
24008;SDS011;12217;50.792;4.372;2023-07-20T03:59:44;15.13;;;8.25;;
24008;SDS011;12217;50.792;4.372;2023-07-20T04:02:13;13.95;;;9.13;;
24008;SDS011;12217;50.792;4.372;2023-07-20T04:04:39;15.05;;;8.65;;
24008;SDS011;12217;50.792;4.372;2023-07-20T04:07:05;16.73;;;9.77;;
24008;SDS011;12217;50.792;4.372;2023-07-20T04:09:32;16.05;;;9.13;;
24008;SDS011;12217;50.792;4.372;2023-07-20T04:11:58;13.48;;;8.88;;
24008;SDS011;12217;50.792;4.372;2023-07-20T04:14:23;17.35;;;9.40;;
24008;SDS011;12217;50.792;4.372;2023-07-20T04:16:49;17.95;;;9.77;;
24008;SDS011;12217;50.792;4.372;2023-07-20T04:19:16;21.35;;;10.23;;
24008;SDS011;12217;50.792;4.372;2023-07-20T04:21:42;15.45;;;9.70;;
24008;SDS011;12217;50.792;4.372;2023-07-20T04:24:08;16.75;;;9.98;;
24008;SDS011;12217;50.792;4.372;2023-07-20T04:26:34;19.27;;;10.38;;
24008;SDS011;12217;50.792;4.372;2023-07-20T04:29:00;17.15;;;10.45;;
24008;SDS011;12217;50.792;4.372;2023-07-20T04:31:28;18.48;;;10.45;;
24008;SDS011;12217;50.792;4.372;2023-07-20T04:33:57;17.08;;;10.82;;
24008;SDS011;12217;50.792;4.372;2023-07-20T04:36:22;20.63;;;11.63;;
24008;SDS011;12217;50.792;4.372;2023-07-20T04:38:48;20.15;;;11.20;;
24008;SDS011;12217;50.792;4.372;2023-07-20T04:41:16;17.17;;;10.95;;
24008;SDS011;12217;50.792;4.372;2023-07-20T04:43:42;19.42;;;11.20;;
24008;SDS011;12217;50.792;4.372;2023-07-20T04:46:09;18.58;;;10.88;;
24008;SDS011;12217;50.792;4.372;2023-07-20T04:48:37;21.73;;;11.48;;
24008;SDS011;12217;50.792;4.372;2023-07-20T04:51:03;19.25;;;11.95;;
24008;SDS011;12217;50.792;4.372;2023-07-20T04:53:29;18.05;;;11.82;;
24008;SDS011;12217;50.792;4.372;2023-07-20T04:55:56;22.08;;;12.02;;
24008;SDS011;12217;50.792;4.372;2023-07-20T04:58:21;20.92;;;11.77;;
24008;SDS011;12217;50.792;4.372;2023-07-20T05:00:48;23.98;;;10.88;;
24008;SDS011;12217;50.792;4.372;2023-07-20T05:03:14;22.58;;;12.57;;
24008;SDS011;12217;50.792;4.372;2023-07-20T05:05:40;22.45;;;12.25;;
24008;SDS011;12217;50.792;4.372;2023-07-20T05:08:05;18.95;;;11.43;;
24008;SDS011;12217;50.792;4.372;2023-07-20T05:10:31;16.85;;;11.57;;
24008;SDS011;12217;50.792;4.372;2023-07-20T05:12:59;18.70;;;12.27;;
24008;SDS011;12217;50.792;4.372;2023-07-20T05:15:25;16.70;;;10.55;;
24008;SDS011;12217;50.792;4.372;2023-07-20T05:17:51;18.77;;;11.60;;
24008;SDS011;12217;50.792;4.372;2023-07-20T05:20:16;20.65;;;12.35;;
24008;SDS011;12217;50.792;4.372;2023-07-20T05:22:42;21.13;;;12.32;;
24008;SDS011;12217;50.792;4.372;2023-07-20T05:25:08;20.90;;;12.00;;
24008;SDS011;12217;50.792;4.372;2023-07-20T05:27:38;17.85;;;11.90;;
24008;SDS011;12217;50.792;4.372;2023-07-20T05:30:05;19.67;;;12.13;;
24008;SDS011;12217;50.792;4.372;2023-07-20T05:32:32;20.40;;;12.60;;
24008;SDS011;12217;50.792;4.372;2023-07-20T05:34:58;19.45;;;12.60;;
24008;SDS011;12217;50.792;4.372;2023-07-20T05:37:24;21.17;;;13.32;;
24008;SDS011;12217;50.792;4.372;2023-07-20T05:39:49;22.90;;;13.85;;
24008;SDS011;12217;50.792;4.372;2023-07-20T05:42:15;20.50;;;13.23;;
24008;SDS011;12217;50.792;4.372;2023-07-20T05:44:41;21.42;;;13.82;;
24008;SDS011;12217;50.792;4.372;2023-07-20T05:47:06;25.35;;;15.00;;
24008;SDS011;12217;50.792;4.372;2023-07-20T05:49:32;25.42;;;14.23;;
24008;SDS011;12217;50.792;4.372;2023-07-20T05:51:59;22.23;;;15.00;;
24008;SDS011;12217;50.792;4.372;2023-07-20T05:54:26;23.50;;;14.70;;
24008;SDS011;12217;50.792;4.372;2023-07-20T05:56:52;22.85;;;14.98;;
24008;SDS011;12217;50.792;4.372;2023-07-20T05:59:18;24.70;;;14.57;;
24008;SDS011;12217;50.792;4.372;2023-07-20T06:01:48;19.65;;;15.02;;
24008;SDS011;12217;50.792;4.372;2023-07-20T06:04:14;22.17;;;15.15;;
24008;SDS011;12217;50.792;4.372;2023-07-20T06:06:40;20.45;;;14.60;;
24008;SDS011;12217;50.792;4.372;2023-07-20T06:09:05;19.33;;;14.70;;
24008;SDS011;12217;50.792;4.372;2023-07-20T06:11:34;22.65;;;14.98;;
24008;SDS011;12217;50.792;4.372;2023-07-20T06:14:00;19.67;;;13.48;;
24008;SDS011;12217;50.792;4.372;2023-07-20T06:16:26;22.00;;;15.07;;
24008;SDS011;12217;50.792;4.372;2023-07-20T06:18:52;22.70;;;15.20;;
24008;SDS011;12217;50.792;4.372;2023-07-20T06:21:18;26.23;;;15.88;;
24008;SDS011;12217;50.792;4.372;2023-07-20T06:23:43;24.38;;;15.15;;
24008;SDS011;12217;50.792;4.372;2023-07-20T06:26:09;27.48;;;16.83;;
24008;SDS011;12217;50.792;4.372;2023-07-20T06:28:34;24.65;;;16.35;;
24008;SDS011;12217;50.792;4.372;2023-07-20T06:31:01;23.52;;;16.92;;
24008;SDS011;12217;50.792;4.372;2023-07-20T06:33:27;22.70;;;16.95;;
24008;SDS011;12217;50.792;4.372;2023-07-20T06:35:53;21.27;;;14.10;;
24008;SDS011;12217;50.792;4.372;2023-07-20T06:38:19;18.15;;;14.63;;
24008;SDS011;12217;50.792;4.372;2023-07-20T06:40:46;19.23;;;14.10;;
24008;SDS011;12217;50.792;4.372;2023-07-20T06:43:12;18.05;;;14.45;;
24008;SDS011;12217;50.792;4.372;2023-07-20T06:45:37;21.45;;;14.45;;
24008;SDS011;12217;50.792;4.372;2023-07-20T06:48:03;17.73;;;14.18;;
24008;SDS011;12217;50.792;4.372;2023-07-20T06:50:29;20.05;;;13.98;;
24008;SDS011;12217;50.792;4.372;2023-07-20T06:52:55;17.85;;;13.23;;
24008;SDS011;12217;50.792;4.372;2023-07-20T06:55:20;18.80;;;13.77;;
24008;SDS011;12217;50.792;4.372;2023-07-20T06:57:46;22.55;;;12.55;;
24008;SDS011;12217;50.792;4.372;2023-07-20T07:00:12;19.73;;;14.45;;
24008;SDS011;12217;50.792;4.372;2023-07-20T07:02:38;17.33;;;13.27;;
24008;SDS011;12217;50.792;4.372;2023-07-20T07:05:04;15.27;;;12.82;;
24008;SDS011;12217;50.792;4.372;2023-07-20T07:07:30;18.02;;;13.82;;
24008;SDS011;12217;50.792;4.372;2023-07-20T07:09:56;14.57;;;11.45;;
24008;SDS011;12217;50.792;4.372;2023-07-20T07:12:21;14.90;;;12.00;;
24008;SDS011;12217;50.792;4.372;2023-07-20T07:14:47;18.65;;;13.75;;
24008;SDS011;12217;50.792;4.372;2023-07-20T07:17:12;16.20;;;12.63;;
24008;SDS011;12217;50.792;4.372;2023-07-20T07:19:38;16.00;;;12.77;;
24008;SDS011;12217;50.792;4.372;2023-07-20T07:22:05;16.02;;;12.35;;
24008;SDS011;12217;50.792;4.372;2023-07-20T07:24:31;15.43;;;11.88;;
24008;SDS011;12217;50.792;4.372;2023-07-20T07:27:00;12.65;;;11.38;;
24008;SDS011;12217;50.792;4.372;2023-07-20T07:29:26;18.40;;;11.85;;
24008;SDS011;12217;50.792;4.372;2023-07-20T07:31:52;13.88;;;10.07;;
24008;SDS011;12217;50.792;4.372;2023-07-20T07:34:18;10.82;;;9.07;;
24008;SDS011;12217;50.792;4.372;2023-07-20T07:36:43;10.65;;;8.43;;
24008;SDS011;12217;50.792;4.372;2023-07-20T07:39:09;12.55;;;8.63;;
24008;SDS011;12217;50.792;4.372;2023-07-20T07:41:35;10.38;;;8.00;;
24008;SDS011;12217;50.792;4.372;2023-07-20T07:44:01;8.82;;;7.90;;
24008;SDS011;12217;50.792;4.372;2023-07-20T07:46:26;12.60;;;8.55;;
24008;SDS011;12217;50.792;4.372;2023-07-20T07:48:52;10.70;;;8.32;;
24008;SDS011;12217;50.792;4.372;2023-07-20T07:51:18;9.50;;;8.30;;
24008;SDS011;12217;50.792;4.372;2023-07-20T07:53:45;9.15;;;7.25;;
24008;SDS011;12217;50.792;4.372;2023-07-20T07:56:11;9.82;;;7.45;;
24008;SDS011;12217;50.792;4.372;2023-07-20T07:58:37;9.43;;;7.32;;
24008;SDS011;12217;50.792;4.372;2023-07-20T08:01:03;9.43;;;6.97;;
24008;SDS011;12217;50.792;4.372;2023-07-20T08:03:28;9.55;;;6.95;;
24008;SDS011;12217;50.792;4.372;2023-07-20T08:05:54;7.05;;;5.57;;
24008;SDS011;12217;50.792;4.372;2023-07-20T08:08:25;8.48;;;5.38;;
24008;SDS011;12217;50.792;4.372;2023-07-20T08:10:52;8.48;;;4.70;;
24008;SDS011;12217;50.792;4.372;2023-07-20T08:13:19;7.20;;;4.68;;
24008;SDS011;12217;50.792;4.372;2023-07-20T08:15:45;4.60;;;3.90;;
24008;SDS011;12217;50.792;4.372;2023-07-20T08:18:15;8.43;;;3.72;;
24008;SDS011;12217;50.792;4.372;2023-07-20T08:20:43;5.55;;;3.75;;
24008;SDS011;12217;50.792;4.372;2023-07-20T08:23:09;5.03;;;3.40;;
24008;SDS011;12217;50.792;4.372;2023-07-20T08:25:38;5.75;;;3.42;;
24008;SDS011;12217;50.792;4.372;2023-07-20T08:28:06;5.15;;;3.70;;
24008;SDS011;12217;50.792;4.372;2023-07-20T08:30:46;4.78;;;2.80;;
24008;SDS011;12217;50.792;4.372;2023-07-20T08:33:13;4.88;;;3.17;;
24008;SDS011;12217;50.792;4.372;2023-07-20T08:35:39;3.90;;;3.30;;
24008;SDS011;12217;50.792;4.372;2023-07-20T08:38:05;4.97;;;4.30;;
24008;SDS011;12217;50.792;4.372;2023-07-20T08:40:32;4.00;;;3.55;;
24008;SDS011;12217;50.792;4.372;2023-07-20T08:43:04;4.57;;;3.65;;
24008;SDS011;12217;50.792;4.372;2023-07-20T08:45:29;6.20;;;3.05;;
24008;SDS011;12217;50.792;4.372;2023-07-20T08:47:58;3.95;;;2.50;;
24008;SDS011;12217;50.792;4.372;2023-07-20T08:50:29;3.92;;;2.67;;
24008;SDS011;12217;50.792;4.372;2023-07-20T08:52:56;5.00;;;2.70;;
24008;SDS011;12217;50.792;4.372;2023-07-20T08:55:23;4.85;;;2.50;;
24008;SDS011;12217;50.792;4.372;2023-07-20T08:57:51;2.58;;;2.38;;
24008;SDS011;12217;50.792;4.372;2023-07-20T09:00:20;2.78;;;2.30;;
24008;SDS011;12217;50.792;4.372;2023-07-20T09:02:48;4.30;;;2.80;;
24008;SDS011;12217;50.792;4.372;2023-07-20T09:05:18;2.33;;;2.13;;
24008;SDS011;12217;50.792;4.372;2023-07-20T09:07:45;3.78;;;1.70;;
24008;SDS011;12217;50.792;4.372;2023-07-20T09:10:11;5.07;;;1.75;;
24008;SDS011;12217;50.792;4.372;2023-07-20T09:12:37;3.35;;;1.40;;
24008;SDS011;12217;50.792;4.372;2023-07-20T09:15:04;2.75;;;1.80;;
24008;SDS011;12217;50.792;4.372;2023-07-20T09:17:30;2.42;;;1.77;;
24008;SDS011;12217;50.792;4.372;2023-07-20T09:19:56;2.28;;;1.83;;
24008;SDS011;12217;50.792;4.372;2023-07-20T09:22:22;1.90;;;1.70;;
24008;SDS011;12217;50.792;4.372;2023-07-20T09:24:54;2.22;;;1.88;;
24008;SDS011;12217;50.792;4.372;2023-07-20T09:27:20;7.38;;;1.92;;
24008;SDS011;12217;50.792;4.372;2023-07-20T09:29:48;4.35;;;1.40;;
24008;SDS011;12217;50.792;4.372;2023-07-20T09:32:17;3.03;;;1.48;;
24008;SDS011;12217;50.792;4.372;2023-07-20T09:34:45;2.88;;;1.45;;
24008;SDS011;12217;50.792;4.372;2023-07-20T09:37:11;2.15;;;1.40;;
24008;SDS011;12217;50.792;4.372;2023-07-20T09:39:43;2.03;;;1.77;;
24008;SDS011;12217;50.792;4.372;2023-07-20T09:42:11;2.53;;;1.60;;
24008;SDS011;12217;50.792;4.372;2023-07-20T09:44:38;4.05;;;2.00;;
24008;SDS011;12217;50.792;4.372;2023-07-20T09:47:04;2.60;;;1.65;;
24008;SDS011;12217;50.792;4.372;2023-07-20T09:49:30;3.17;;;1.77;;
24008;SDS011;12217;50.792;4.372;2023-07-20T09:51:57;4.63;;;2.10;;
24008;SDS011;12217;50.792;4.372;2023-07-20T09:54:25;4.15;;;2.28;;
24008;SDS011;12217;50.792;4.372;2023-07-20T09:56:52;2.28;;;1.70;;
24008;SDS011;12217;50.792;4.372;2023-07-20T09:59:18;1.77;;;1.67;;
24008;SDS011;12217;50.792;4.372;2023-07-20T10:01:44;2.42;;;1.70;;
24008;SDS011;12217;50.792;4.372;2023-07-20T10:04:12;3.08;;;1.75;;
24008;SDS011;12217;50.792;4.372;2023-07-20T10:06:42;2.03;;;1.60;;
24008;SDS011;12217;50.792;4.372;2023-07-20T10:09:12;2.10;;;1.90;;
24008;SDS011;12217;50.792;4.372;2023-07-20T10:11:42;2.45;;;1.60;;
24008;SDS011;12217;50.792;4.372;2023-07-20T10:14:14;2.20;;;1.45;;
24008;SDS011;12217;50.792;4.372;2023-07-20T10:16:46;2.03;;;1.87;;
24008;SDS011;12217;50.792;4.372;2023-07-20T10:22:00;1.65;;;1.55;;
24008;SDS011;12217;50.792;4.372;2023-07-20T10:24:32;4.97;;;2.05;;
24008;SDS011;12217;50.792;4.372;2023-07-20T10:27:00;2.00;;;1.70;;
24008;SDS011;12217;50.792;4.372;2023-07-20T10:29:26;2.83;;;2.03;;
24008;SDS011;12217;50.792;4.372;2023-07-20T10:31:54;2.35;;;1.58;;
24008;SDS011;12217;50.792;4.372;2023-07-20T10:34:20;2.10;;;1.83;;
24008;SDS011;12217;50.792;4.372;2023-07-20T10:36:47;2.15;;;1.80;;
24008;SDS011;12217;50.792;4.372;2023-07-20T10:39:26;1.98;;;1.80;;
24008;SDS011;12217;50.792;4.372;2023-07-20T10:42:03;5.60;;;2.00;;
24008;SDS011;12217;50.792;4.372;2023-07-20T10:44:32;3.38;;;2.58;;
24008;SDS011;12217;50.792;4.372;2023-07-20T10:47:02;3.25;;;2.20;;
24008;SDS011;12217;50.792;4.372;2023-07-20T10:49:32;3.05;;;2.45;;
24008;SDS011;12217;50.792;4.372;2023-07-20T10:51:59;2.83;;;2.60;;
24008;SDS011;12217;50.792;4.372;2023-07-20T10:56:56;4.57;;;2.95;;
24008;SDS011;12217;50.792;4.372;2023-07-20T11:01:48;2.92;;;2.72;;
24008;SDS011;12217;50.792;4.372;2023-07-20T11:04:15;3.10;;;2.90;;
24008;SDS011;12217;50.792;4.372;2023-07-20T11:06:45;4.68;;;2.90;;
24008;SDS011;12217;50.792;4.372;2023-07-20T11:09:12;3.58;;;2.85;;
24008;SDS011;12217;50.792;4.372;2023-07-20T11:11:41;5.45;;;2.88;;
24008;SDS011;12217;50.792;4.372;2023-07-20T11:14:08;4.60;;;3.08;;
24008;SDS011;12217;50.792;4.372;2023-07-20T11:16:43;4.82;;;3.65;;
24008;SDS011;12217;50.792;4.372;2023-07-20T11:19:19;3.67;;;3.38;;
24008;SDS011;12217;50.792;4.372;2023-07-20T11:21:53;3.28;;;3.05;;
24008;SDS011;12217;50.792;4.372;2023-07-20T11:24:19;3.30;;;3.00;;
24008;SDS011;12217;50.792;4.372;2023-07-20T11:29:12;6.07;;;3.08;;
24008;SDS011;12217;50.792;4.372;2023-07-20T11:31:42;5.78;;;3.38;;
24008;SDS011;12217;50.792;4.372;2023-07-20T11:34:12;4.80;;;3.15;;
24008;SDS011;12217;50.792;4.372;2023-07-20T11:36:40;3.53;;;3.20;;
24008;SDS011;12217;50.792;4.372;2023-07-20T11:39:08;3.90;;;3.47;;
24008;SDS011;12217;50.792;4.372;2023-07-20T11:41:34;4.95;;;3.38;;
24008;SDS011;12217;50.792;4.372;2023-07-20T11:44:00;3.60;;;3.30;;
24008;SDS011;12217;50.792;4.372;2023-07-20T11:46:27;3.88;;;3.47;;
24008;SDS011;12217;50.792;4.372;2023-07-20T11:48:57;5.38;;;3.60;;
24008;SDS011;12217;50.792;4.372;2023-07-20T11:51:29;3.97;;;3.40;;
24008;SDS011;12217;50.792;4.372;2023-07-20T11:53:56;5.05;;;3.13;;
24008;SDS011;12217;50.792;4.372;2023-07-20T11:56:22;4.50;;;3.70;;
24008;SDS011;12217;50.792;4.372;2023-07-20T11:58:49;3.33;;;3.03;;
24008;SDS011;12217;50.792;4.372;2023-07-20T12:01:15;3.65;;;3.33;;
24008;SDS011;12217;50.792;4.372;2023-07-20T12:03:44;3.70;;;3.40;;
24008;SDS011;12217;50.792;4.372;2023-07-20T12:06:10;5.70;;;3.60;;
24008;SDS011;12217;50.792;4.372;2023-07-20T12:08:39;6.47;;;3.63;;
24008;SDS011;12217;50.792;4.372;2023-07-20T12:11:06;5.05;;;3.60;;
24008;SDS011;12217;50.792;4.372;2023-07-20T12:13:40;4.47;;;3.30;;
24008;SDS011;12217;50.792;4.372;2023-07-20T12:16:13;5.03;;;3.25;;
24008;SDS011;12217;50.792;4.372;2023-07-20T12:18:40;3.42;;;2.67;;
24008;SDS011;12217;50.792;4.372;2023-07-20T12:21:09;5.32;;;3.10;;
24008;SDS011;12217;50.792;4.372;2023-07-20T12:23:37;5.25;;;2.50;;
24008;SDS011;12217;50.792;4.372;2023-07-20T12:26:07;4.80;;;2.30;;
24008;SDS011;12217;50.792;4.372;2023-07-20T12:28:40;2.80;;;2.22;;
24008;SDS011;12217;50.792;4.372;2023-07-20T12:31:07;3.03;;;2.10;;
24008;SDS011;12217;50.792;4.372;2023-07-20T12:33:34;2.92;;;2.30;;
24008;SDS011;12217;50.792;4.372;2023-07-20T12:36:00;3.42;;;2.58;;
24008;SDS011;12217;50.792;4.372;2023-07-20T12:38:26;4.13;;;2.58;;
24008;SDS011;12217;50.792;4.372;2023-07-20T12:40:52;3.75;;;2.63;;
24008;SDS011;12217;50.792;4.372;2023-07-20T12:43:20;2.50;;;2.20;;
24008;SDS011;12217;50.792;4.372;2023-07-20T12:45:46;5.63;;;2.25;;
24008;SDS011;12217;50.792;4.372;2023-07-20T12:48:12;3.22;;;2.30;;
24008;SDS011;12217;50.792;4.372;2023-07-20T12:50:37;3.70;;;2.58;;
24008;SDS011;12217;50.792;4.372;2023-07-20T12:53:03;2.72;;;2.53;;
24008;SDS011;12217;50.792;4.372;2023-07-20T12:55:29;3.03;;;2.45;;
24008;SDS011;12217;50.792;4.372;2023-07-20T12:57:54;2.90;;;2.55;;
24008;SDS011;12217;50.792;4.372;2023-07-20T13:00:20;3.45;;;2.60;;
24008;SDS011;12217;50.792;4.372;2023-07-20T13:02:47;3.50;;;2.50;;
24008;SDS011;12217;50.792;4.372;2023-07-20T13:05:14;4.30;;;2.78;;
24008;SDS011;12217;50.792;4.372;2023-07-20T13:07:40;2.95;;;2.30;;
24008;SDS011;12217;50.792;4.372;2023-07-20T13:10:06;3.08;;;2.40;;
24008;SDS011;12217;50.792;4.372;2023-07-20T13:12:33;2.88;;;2.67;;
24008;SDS011;12217;50.792;4.372;2023-07-20T13:15:01;2.45;;;2.20;;
24008;SDS011;12217;50.792;4.372;2023-07-20T13:17:30;6.03;;;2.67;;
24008;SDS011;12217;50.792;4.372;2023-07-20T13:19:56;2.83;;;2.28;;
24008;SDS011;12217;50.792;4.372;2023-07-20T13:22:22;3.38;;;2.20;;
24008;SDS011;12217;50.792;4.372;2023-07-20T13:24:48;3.38;;;2.47;;
24008;SDS011;12217;50.792;4.372;2023-07-20T13:27:15;2.20;;;2.03;;
24008;SDS011;12217;50.792;4.372;2023-07-20T13:29:41;3.63;;;2.70;;
24008;SDS011;12217;50.792;4.372;2023-07-20T13:32:07;2.97;;;2.72;;
24008;SDS011;12217;50.792;4.372;2023-07-20T13:34:33;2.95;;;2.67;;
24008;SDS011;12217;50.792;4.372;2023-07-20T13:36:59;2.90;;;2.53;;
24008;SDS011;12217;50.792;4.372;2023-07-20T13:39:25;3.10;;;2.80;;
24008;SDS011;12217;50.792;4.372;2023-07-20T13:41:53;2.75;;;2.55;;
24008;SDS011;12217;50.792;4.372;2023-07-20T13:44:19;2.83;;;2.60;;
24008;SDS011;12217;50.792;4.372;2023-07-20T13:46:48;3.03;;;2.83;;
24008;SDS011;12217;50.792;4.372;2023-07-20T13:49:14;3.47;;;2.92;;
24008;SDS011;12217;50.792;4.372;2023-07-20T13:51:40;3.20;;;2.90;;
24008;SDS011;12217;50.792;4.372;2023-07-20T13:54:06;3.50;;;2.70;;
24008;SDS011;12217;50.792;4.372;2023-07-20T13:56:32;3.90;;;2.60;;
24008;SDS011;12217;50.792;4.372;2023-07-20T13:58:57;4.57;;;3.30;;
24008;SDS011;12217;50.792;4.372;2023-07-20T14:01:23;3.75;;;2.92;;
24008;SDS011;12217;50.792;4.372;2023-07-20T14:03:50;2.95;;;2.45;;
24008;SDS011;12217;50.792;4.372;2023-07-20T14:06:16;2.88;;;2.60;;
24008;SDS011;12217;50.792;4.372;2023-07-20T14:08:42;3.13;;;2.10;;
24008;SDS011;12217;50.792;4.372;2023-07-20T14:11:11;2.75;;;2.10;;
24008;SDS011;12217;50.792;4.372;2023-07-20T14:13:37;3.17;;;2.15;;
24008;SDS011;12217;50.792;4.372;2023-07-20T14:16:03;3.47;;;2.20;;
24008;SDS011;12217;50.792;4.372;2023-07-20T14:18:29;3.83;;;2.40;;
24008;SDS011;12217;50.792;4.372;2023-07-20T14:20:54;4.00;;;2.28;;
24008;SDS011;12217;50.792;4.372;2023-07-20T14:23:20;3.10;;;2.00;;
24008;SDS011;12217;50.792;4.372;2023-07-20T14:25:45;3.40;;;2.17;;
24008;SDS011;12217;50.792;4.372;2023-07-20T14:28:13;3.90;;;2.55;;
24008;SDS011;12217;50.792;4.372;2023-07-20T14:30:38;3.90;;;2.10;;
24008;SDS011;12217;50.792;4.372;2023-07-20T14:33:05;3.35;;;1.88;;
24008;SDS011;12217;50.792;4.372;2023-07-20T14:35:30;2.88;;;1.98;;
24008;SDS011;12217;50.792;4.372;2023-07-20T14:37:56;4.25;;;2.28;;
24008;SDS011;12217;50.792;4.372;2023-07-20T14:40:21;2.13;;;1.75;;
24008;SDS011;12217;50.792;4.372;2023-07-20T14:42:47;5.97;;;2.30;;
24008;SDS011;12217;50.792;4.372;2023-07-20T14:45:13;6.55;;;1.92;;
24008;SDS011;12217;50.792;4.372;2023-07-20T14:47:39;2.90;;;2.35;;
24008;SDS011;12217;50.792;4.372;2023-07-20T14:50:05;2.17;;;1.98;;
24008;SDS011;12217;50.792;4.372;2023-07-20T14:52:31;4.10;;;2.00;;
24008;SDS011;12217;50.792;4.372;2023-07-20T14:54:56;3.13;;;2.40;;
24008;SDS011;12217;50.792;4.372;2023-07-20T14:57:22;2.50;;;2.30;;